createdAt,value
2022-12-25T00:01:59.318Z,96.34
2022-12-25T00:04:28.186Z,96.59
2022-12-25T00:06:55.655Z,96.76
2022-12-25T00:09:21.999Z,96.84
2022-12-25T00:11:48.428Z,96.86
2022-12-25T00:14:14.757Z,96.62
2022-12-25T00:16:41.258Z,96.71
2022-12-25T00:19:07.558Z,96.97
2022-12-25T00:21:35.245Z,96.86
2022-12-25T00:24:01.936Z,96.86
2022-12-25T00:26:30.579Z,96.98
2022-12-25T00:28:57.864Z,97.14
2022-12-25T00:31:24.870Z,96.93
2022-12-25T00:33:51.791Z,96.97
2022-12-25T00:36:19.531Z,97.02
2022-12-25T00:38:55.263Z,97.17
2022-12-25T00:41:44.306Z,97.22
2022-12-25T00:44:12.594Z,96.91
2022-12-25T00:46:39.535Z,97.33
2022-12-25T00:49:08.577Z,97.09
2022-12-25T00:51:34.868Z,97.33
2022-12-25T00:54:01.227Z,97.38
2022-12-25T00:56:27.561Z,97.20
2022-12-25T00:58:56.734Z,97.18
2022-12-25T01:01:29.456Z,97.23
2022-12-25T01:03:56.063Z,97.23
2022-12-25T01:06:24.176Z,97.47
2022-12-25T01:09:16.691Z,97.35
2022-12-25T01:11:52.809Z,97.48
2022-12-25T01:14:19.304Z,97.50
2022-12-25T01:16:45.858Z,97.38
2022-12-25T01:19:12.185Z,97.22
2022-12-25T01:21:38.647Z,97.49
2022-12-25T01:24:05.284Z,97.27
2022-12-25T01:26:31.517Z,97.35
2022-12-25T01:28:59.644Z,97.36
2022-12-25T01:31:26.062Z,97.30
2022-12-25T01:33:52.792Z,97.32
2022-12-25T01:36:23.678Z,97.41
2022-12-25T01:38:50.181Z,97.51
2022-12-25T01:41:17.419Z,97.26
2022-12-25T01:44:08.005Z,97.59
2022-12-25T01:46:34.963Z,97.52
2022-12-25T01:49:14.641Z,97.59
2022-12-25T01:51:43.193Z,97.73
2022-12-25T01:54:13.141Z,97.64
2022-12-25T01:56:40.324Z,97.62
2022-12-25T01:59:06.845Z,97.60
2022-12-25T02:01:33.327Z,97.26
2022-12-25T02:04:05.614Z,97.27
2022-12-25T02:06:33.274Z,97.38
2022-12-25T02:08:59.783Z,97.35
2022-12-25T02:11:44.655Z,97.48
2022-12-25T02:14:11.195Z,97.06
2022-12-25T02:16:56.694Z,97.52
2022-12-25T02:19:27.481Z,97.33
2022-12-25T02:21:53.808Z,97.19
2022-12-25T02:24:23.404Z,97.32
2022-12-25T02:26:55.862Z,97.32
2022-12-25T02:29:29.381Z,97.66
2022-12-25T02:31:55.930Z,97.46
2022-12-25T02:34:29.430Z,97.20
2022-12-25T02:37:15.748Z,97.39
2022-12-25T02:40:00.828Z,97.63
2022-12-25T02:42:59.028Z,97.74
2022-12-25T02:45:47.167Z,97.62
2022-12-25T02:48:33.384Z,97.42
2022-12-25T02:51:23.358Z,97.66
2022-12-25T02:54:10.721Z,97.77
2022-12-25T02:56:58.762Z,97.61
2022-12-25T02:59:43.978Z,97.90
2022-12-25T03:02:31.780Z,97.83
2022-12-25T03:05:18.473Z,98.06
2022-12-25T03:07:47.832Z,98.21
2022-12-25T03:10:33.628Z,98.32
2022-12-25T03:13:06.133Z,98.09
2022-12-25T03:15:52.428Z,98.04
2022-12-25T03:18:34.324Z,98.08
2022-12-25T03:21:19.712Z,98.39
2022-12-25T03:24:07.797Z,98.44
2022-12-25T03:26:53.272Z,98.46
2022-12-25T03:29:38.448Z,98.59
2022-12-25T03:32:10.634Z,98.46
2022-12-25T03:35:14.736Z,98.52
2022-12-25T03:38:07.808Z,98.70
2022-12-25T03:40:58.883Z,98.42
2022-12-25T03:43:59.769Z,98.52
2022-12-25T03:46:48.202Z,98.47
2022-12-25T03:49:40.023Z,98.52
2022-12-25T03:52:27.120Z,98.62
2022-12-25T03:55:20.400Z,98.68
2022-12-25T03:58:05.227Z,98.53
2022-12-25T04:00:50.168Z,98.44
2022-12-25T04:03:34.988Z,98.48
2022-12-25T04:06:20.028Z,98.40
2022-12-25T04:09:05.234Z,98.43
2022-12-25T04:11:49.985Z,98.51
2022-12-25T04:14:34.926Z,98.69
2022-12-25T04:17:19.639Z,98.80
2022-12-25T04:20:04.505Z,98.97
2022-12-25T04:22:49.358Z,98.83
2022-12-25T04:25:34.359Z,98.62
2022-12-25T04:28:20.256Z,98.86
2022-12-25T04:31:05.881Z,98.94
2022-12-25T04:33:51.089Z,99.07
2022-12-25T04:36:17.413Z,98.93
2022-12-25T04:38:43.876Z,99.01
2022-12-25T04:41:11.397Z,98.86
2022-12-25T04:43:38.117Z,99.13
2022-12-25T04:46:05.620Z,99.32
2022-12-25T04:48:33.751Z,99.24
2022-12-25T04:51:09.737Z,99.12
2022-12-25T04:53:36.071Z,98.94
2022-12-25T04:56:03.170Z,99.12
2022-12-25T04:58:30.969Z,98.66
2022-12-25T05:00:59.237Z,99.06
2022-12-25T05:03:28.034Z,99.05
2022-12-25T05:05:54.832Z,98.74
2022-12-25T05:08:21.604Z,98.74
2022-12-25T05:10:48.157Z,98.58
2022-12-25T05:13:15.011Z,98.61
2022-12-25T05:15:42.729Z,98.55
2022-12-25T05:18:09.324Z,98.51
2022-12-25T05:20:40.005Z,98.46
2022-12-25T05:23:06.829Z,98.40
2022-12-25T05:25:34.539Z,98.25
2022-12-25T05:28:03.512Z,98.37
2022-12-25T05:30:29.873Z,98.22
2022-12-25T05:32:56.524Z,98.12
2022-12-25T05:35:22.890Z,98.26
2022-12-25T05:37:49.235Z,98.07
2022-12-25T05:40:15.545Z,98.04
2022-12-25T05:42:41.893Z,97.98
2022-12-25T05:45:08.420Z,97.96
2022-12-25T05:47:34.667Z,97.56
2022-12-25T05:50:01.075Z,97.68
2022-12-25T05:52:30.852Z,97.68
2022-12-25T05:54:57.541Z,97.73
2022-12-25T05:57:23.792Z,97.46
2022-12-25T05:59:50.176Z,97.64
2022-12-25T06:02:16.652Z,97.60
2022-12-25T06:04:43.029Z,97.50
2022-12-25T06:07:10.431Z,97.60
2022-12-25T06:09:38.046Z,97.47
2022-12-25T06:12:04.399Z,97.33
2022-12-25T06:14:32.488Z,97.28
2022-12-25T06:16:59.213Z,97.18
2022-12-25T06:19:25.653Z,97.28
2022-12-25T06:21:55.777Z,97.42
2022-12-25T06:24:23.028Z,97.46
2022-12-25T06:26:52.441Z,97.36
2022-12-25T06:29:18.742Z,97.22
2022-12-25T06:31:46.340Z,97.16
2022-12-25T06:34:16.332Z,97.05
2022-12-25T06:36:42.792Z,97.03
2022-12-25T06:39:09.533Z,97.17
2022-12-25T06:41:37.415Z,97.28
2022-12-25T06:44:05.167Z,97.24
2022-12-25T06:46:31.634Z,96.97
2022-12-25T06:48:58.699Z,97.27
2022-12-25T06:51:27.245Z,97.27
2022-12-25T06:53:53.635Z,97.43
2022-12-25T06:56:24.221Z,97.28
2022-12-25T06:59:11.009Z,97.22
2022-12-25T07:01:43.757Z,97.37
2022-12-25T07:04:14.058Z,97.29
2022-12-25T07:06:46.530Z,97.21
2022-12-25T07:09:13.904Z,97.24
2022-12-25T07:11:40.231Z,96.89
2022-12-25T07:14:06.548Z,97.15
2022-12-25T07:16:33.012Z,97.24
2022-12-25T07:19:00.683Z,97.08
2022-12-25T07:21:27.160Z,97.28
2022-12-25T07:23:53.776Z,97.22
2022-12-25T07:26:22.850Z,97.23
2022-12-25T07:28:49.126Z,97.19
2022-12-25T07:31:16.358Z,97.14
2022-12-25T07:33:42.968Z,97.17
2022-12-25T07:36:10.242Z,97.03
2022-12-25T07:38:39.412Z,96.92
2022-12-25T07:41:09.709Z,96.90
2022-12-25T07:43:36.048Z,96.79
2022-12-25T07:46:04.485Z,96.79
2022-12-25T07:48:31.370Z,96.74
2022-12-25T07:51:09.499Z,96.66
2022-12-25T07:53:36.376Z,96.55
2022-12-25T07:56:04.479Z,96.56
2022-12-25T07:58:30.971Z,96.58
2022-12-25T08:01:02.545Z,96.37
2022-12-25T08:03:29.298Z,96.33
2022-12-25T08:05:58.688Z,96.60
2022-12-25T08:08:25.001Z,96.69
2022-12-25T08:10:51.260Z,96.62
2022-12-25T08:13:17.593Z,96.34
2022-12-25T08:15:44.024Z,96.18
2022-12-25T08:18:10.378Z,96.80
2022-12-25T08:20:36.689Z,96.58
2022-12-25T08:23:03.873Z,96.66
2022-12-25T08:25:30.458Z,96.44
2022-12-25T08:27:56.746Z,97.01
2022-12-25T08:30:23.082Z,96.63
2022-12-25T08:32:49.376Z,96.85
2022-12-25T08:35:21.978Z,96.83
2022-12-25T08:37:48.438Z,96.85
2022-12-25T08:40:16.275Z,96.98
2022-12-25T08:42:48.331Z,96.86
2022-12-25T08:45:14.752Z,96.92
2022-12-25T08:47:41.064Z,96.87
2022-12-25T08:50:07.749Z,96.91
2022-12-25T08:52:34.497Z,96.61
2022-12-25T08:55:01.049Z,96.80
2022-12-25T08:57:27.332Z,96.44
2022-12-25T08:59:56.097Z,96.53
2022-12-25T09:02:22.463Z,96.61
2022-12-25T09:04:48.876Z,96.73
2022-12-25T09:07:15.202Z,96.63
2022-12-25T09:09:43.450Z,96.55
2022-12-25T09:12:09.746Z,96.28
2022-12-25T09:14:36.242Z,96.43
2022-12-25T09:17:04.081Z,96.46
2022-12-25T09:19:31.118Z,96.38
2022-12-25T09:21:57.442Z,96.42
2022-12-25T09:24:23.847Z,95.98
2022-12-25T09:26:50.260Z,96.53
2022-12-25T09:29:17.857Z,96.38
2022-12-25T09:31:44.285Z,96.33
2022-12-25T09:34:16.955Z,96.41
2022-12-25T09:36:45.048Z,96.25
2022-12-25T09:39:11.435Z,96.20
2022-12-25T09:41:46.857Z,96.14
2022-12-25T09:44:16.304Z,96.36
2022-12-25T09:46:45.656Z,96.40
2022-12-25T09:49:16.939Z,96.12
2022-12-25T09:51:45.277Z,96.18
2022-12-25T09:54:18.873Z,96.33
2022-12-25T09:56:45.147Z,96.43
2022-12-25T09:59:21.039Z,96.47
2022-12-25T10:01:50.444Z,96.44
2022-12-25T10:04:16.781Z,96.17
2022-12-25T10:06:48.876Z,96.21
2022-12-25T10:09:18.483Z,96.44
2022-12-25T10:11:50.707Z,96.28
2022-12-25T10:14:26.144Z,96.32
2022-12-25T10:17:11.960Z,96.44
2022-12-25T10:19:38.294Z,96.36
2022-12-25T10:22:13.138Z,96.30
2022-12-25T10:24:54.183Z,96.56
2022-12-25T10:27:31.267Z,96.36
2022-12-25T10:29:58.603Z,96.33
2022-12-25T10:32:24.923Z,96.22
2022-12-25T10:34:51.376Z,96.38
2022-12-25T10:37:17.676Z,96.59
2022-12-25T10:39:46.900Z,96.28
2022-12-25T10:42:23.587Z,96.47
2022-12-25T10:45:08.146Z,96.50
2022-12-25T10:47:38.047Z,96.25
2022-12-25T10:50:24.662Z,96.39
2022-12-25T10:52:56.126Z,96.48
2022-12-25T10:55:28.392Z,96.21
2022-12-25T10:57:57.718Z,96.66
2022-12-25T11:00:31.241Z,96.54
2022-12-25T11:02:57.884Z,96.71
2022-12-25T11:05:32.236Z,96.62
2022-12-25T11:08:00.550Z,96.72
2022-12-25T11:10:32.865Z,96.95
2022-12-25T11:12:59.894Z,96.68
2022-12-25T11:15:35.816Z,96.57
2022-12-25T11:18:02.961Z,96.61
2022-12-25T11:20:29.782Z,96.76
2022-12-25T11:22:56.133Z,96.67
2022-12-25T11:25:26.869Z,96.68
2022-12-25T11:28:01.167Z,96.69
2022-12-25T11:30:28.916Z,96.90
2022-12-25T11:32:58.715Z,96.81
2022-12-25T11:35:27.819Z,96.88
2022-12-25T11:37:54.313Z,96.94
2022-12-25T11:40:23.777Z,96.96
2022-12-25T11:42:55.180Z,97.08
2022-12-25T11:45:27.124Z,96.90
2022-12-25T11:47:58.943Z,97.08
2022-12-25T11:50:25.248Z,97.26
2022-12-25T11:52:52.123Z,97.09
2022-12-25T11:55:31.070Z,97.41
2022-12-25T11:57:59.599Z,97.12
2022-12-25T12:00:27.486Z,97.22
2022-12-25T12:03:01.346Z,96.89
2022-12-25T12:05:45.264Z,96.97
2022-12-25T12:08:13.791Z,97.09
2022-12-25T12:10:54.443Z,96.99
2022-12-25T12:13:20.739Z,97.17
2022-12-25T12:15:48.119Z,97.23
2022-12-25T12:18:29.970Z,97.09
2022-12-25T12:20:59.127Z,97.18
2022-12-25T12:23:25.748Z,96.89
2022-12-25T12:25:52.564Z,97.14
2022-12-25T12:28:32.658Z,97.07
2022-12-25T12:31:06.069Z,97.14
2022-12-25T12:33:37.860Z,97.07
2022-12-25T12:36:05.400Z,97.10
2022-12-25T12:38:32.590Z,96.89
2022-12-25T12:40:58.894Z,97.17
2022-12-25T12:43:30.700Z,97.27
2022-12-25T12:46:00.997Z,97.43
2022-12-25T12:48:28.319Z,97.32
2022-12-25T12:51:08.669Z,97.57
2022-12-25T12:53:38.348Z,97.48
2022-12-25T12:56:27.714Z,97.39
2022-12-25T12:59:13.934Z,97.12
2022-12-25T13:02:15.560Z,97.42
2022-12-25T13:04:48.811Z,97.38
2022-12-25T13:07:34.012Z,97.17
2022-12-25T13:10:19.262Z,97.46
2022-12-25T13:12:45.996Z,97.74
2022-12-25T13:15:13.747Z,97.44
2022-12-25T13:17:42.934Z,97.52
2022-12-25T13:20:18.269Z,97.58
2022-12-25T13:22:50.652Z,97.77
2022-12-25T13:25:22.637Z,97.62
2022-12-25T13:27:57.353Z,97.72
2022-12-25T13:30:35.121Z,98.00
2022-12-25T13:33:03.781Z,98.07
2022-12-25T13:35:33.504Z,97.98
2022-12-25T13:38:01.480Z,98.22
2022-12-25T13:40:28.490Z,97.98
2022-12-25T13:42:58.496Z,98.18
2022-12-25T13:45:29.785Z,98.30
2022-12-25T13:47:56.903Z,98.00
2022-12-25T13:50:23.303Z,98.01
2022-12-25T13:52:50.640Z,98.00
2022-12-25T13:55:24.624Z,97.99
2022-12-25T13:57:52.756Z,98.00
2022-12-25T14:00:24.247Z,97.95
2022-12-25T14:02:51.341Z,97.95
2022-12-25T14:05:42.263Z,97.83
2022-12-25T14:08:17.473Z,98.13
2022-12-25T14:10:45.927Z,97.77
2022-12-25T14:13:19.320Z,98.04
2022-12-25T14:15:47.796Z,98.10
2022-12-25T14:18:18.577Z,98.23
2022-12-25T14:21:03.731Z,98.08
2022-12-25T14:23:37.568Z,98.30
2022-12-25T14:26:04.119Z,98.37
2022-12-25T14:28:32.991Z,98.47
2022-12-25T14:31:02.793Z,98.38
2022-12-25T14:33:35.218Z,98.28
2022-12-25T14:36:01.988Z,98.33
2022-12-25T14:38:30.405Z,98.13
2022-12-25T14:41:09.267Z,98.42
2022-12-25T14:43:43.411Z,98.37
2022-12-25T14:46:22.215Z,98.55
2022-12-25T14:48:58.053Z,98.59
2022-12-25T14:51:24.905Z,98.50
2022-12-25T14:53:53.250Z,98.57
2022-12-25T14:56:20.916Z,98.64
2022-12-25T14:58:49.955Z,98.71
2022-12-25T15:01:27.891Z,98.69
2022-12-25T15:04:04.072Z,98.87
2022-12-25T15:06:31.135Z,98.66
2022-12-25T15:09:02.352Z,98.65
2022-12-25T15:11:28.799Z,98.81
2022-12-25T15:13:55.267Z,98.67
2022-12-25T15:16:33.934Z,98.70
2022-12-25T15:19:02.199Z,98.82
2022-12-25T15:21:29.730Z,98.81
2022-12-25T15:23:59.657Z,98.84
2022-12-25T15:26:27.608Z,98.95
2022-12-25T15:28:53.965Z,98.71
2022-12-25T15:31:25.810Z,98.70
2022-12-25T15:33:52.931Z,98.74
2022-12-25T15:36:19.384Z,98.64
2022-12-25T15:38:45.768Z,98.70
2022-12-25T15:41:33.568Z,98.90
2022-12-25T15:44:00.222Z,98.75
2022-12-25T15:46:26.889Z,98.64
2022-12-25T15:48:53.476Z,98.65
2022-12-25T15:51:19.872Z,98.70
2022-12-25T15:53:46.213Z,98.71
2022-12-25T15:56:12.683Z,98.55
2022-12-25T15:58:39.056Z,98.83
2022-12-25T16:01:10.890Z,98.64
2022-12-25T16:03:37.864Z,98.61
2022-12-25T16:06:04.239Z,98.68
2022-12-25T16:08:31.657Z,98.81
2022-12-25T16:10:58.014Z,98.75
2022-12-25T16:13:24.330Z,98.56
2022-12-25T16:15:52.360Z,98.65
2022-12-25T16:18:18.740Z,98.83
2022-12-25T16:20:45.136Z,98.92
2022-12-25T16:23:11.779Z,98.75
2022-12-25T16:25:38.219Z,98.63
2022-12-25T16:28:09.546Z,98.83
2022-12-25T16:30:36.787Z,98.59
2022-12-25T16:33:03.155Z,98.43
2022-12-25T16:35:29.743Z,98.45
2022-12-25T16:37:56.139Z,98.65
2022-12-25T16:40:22.516Z,98.65
2022-12-25T16:42:51.984Z,98.88
2022-12-25T16:45:18.332Z,98.46
2022-12-25T16:47:44.674Z,98.61
2022-12-25T16:50:13.881Z,98.29
2022-12-25T16:52:43.116Z,98.93
2022-12-25T16:55:09.705Z,99.01
2022-12-25T16:57:36.120Z,99.11
2022-12-25T17:00:03.993Z,98.94
2022-12-25T17:02:30.497Z,98.90
2022-12-25T17:04:56.952Z,98.78
2022-12-25T17:07:23.286Z,99.13
2022-12-25T17:09:49.880Z,98.86
2022-12-25T17:12:16.361Z,98.84
2022-12-25T17:14:42.818Z,98.87
2022-12-25T17:17:09.073Z,98.96
2022-12-25T17:19:35.416Z,98.86
2022-12-25T17:22:01.850Z,98.74
2022-12-25T17:24:29.046Z,98.88
2022-12-25T17:26:55.534Z,98.82
2022-12-25T17:29:22.901Z,98.75
2022-12-25T17:31:49.432Z,98.82
2022-12-25T17:34:19.108Z,98.66
2022-12-25T17:36:45.498Z,98.75
2022-12-25T17:39:12.130Z,98.83
2022-12-25T17:41:38.530Z,98.72
2022-12-25T17:44:04.868Z,98.61
2022-12-25T17:46:31.434Z,98.71
2022-12-25T17:49:00.808Z,98.70
2022-12-25T17:51:30.020Z,98.68
2022-12-25T17:53:58.128Z,98.68
2022-12-25T17:56:24.883Z,98.47
2022-12-25T17:58:52.532Z,98.56
2022-12-25T18:01:19.912Z,98.59
2022-12-25T18:03:46.415Z,98.45
2022-12-25T18:06:14.019Z,98.33
2022-12-25T18:08:41.217Z,98.29
2022-12-25T18:11:10.920Z,98.27
2022-12-25T18:13:37.590Z,98.42
2022-12-25T18:16:04.942Z,98.28
2022-12-25T18:18:32.514Z,98.53
2022-12-25T18:20:59.233Z,98.27
2022-12-25T18:23:25.718Z,98.16
2022-12-25T18:25:52.108Z,98.17
2022-12-25T18:28:18.917Z,98.12
2022-12-25T18:30:45.921Z,98.00
2022-12-25T18:33:12.681Z,98.07
2022-12-25T18:35:40.649Z,98.28
2022-12-25T18:38:10.103Z,98.18
2022-12-25T18:40:43.061Z,98.10
2022-12-25T18:43:11.539Z,98.02
2022-12-25T18:45:38.315Z,98.13
2022-12-25T18:48:06.297Z,98.19
2022-12-25T18:50:34.332Z,98.01
2022-12-25T18:53:04.492Z,98.27
2022-12-25T18:55:31.753Z,98.25
2022-12-25T18:57:58.187Z,98.11
2022-12-25T19:00:25.041Z,98.18
2022-12-25T19:02:56.129Z,98.15
2022-12-25T19:05:23.854Z,98.13
2022-12-25T19:07:50.189Z,98.16
2022-12-25T19:10:16.521Z,98.02
2022-12-25T19:12:46.007Z,98.25
2022-12-25T19:15:12.729Z,98.12
2022-12-25T19:17:39.044Z,98.10
2022-12-25T19:20:06.520Z,97.92
2022-12-25T19:22:33.075Z,98.00
2022-12-25T19:24:59.470Z,97.88
2022-12-25T19:27:26.275Z,97.92
2022-12-25T19:29:52.787Z,97.83
2022-12-25T19:32:19.262Z,97.80
2022-12-25T19:34:47.143Z,97.82
2022-12-25T19:37:15.161Z,97.74
2022-12-25T19:39:46.458Z,97.89
2022-12-25T19:42:16.226Z,97.60
2022-12-25T19:44:43.493Z,97.71
2022-12-25T19:47:10.643Z,97.70
2022-12-25T19:49:37.519Z,97.75
2022-12-25T19:52:04.241Z,97.87
2022-12-25T19:54:31.255Z,97.76
2022-12-25T19:56:57.651Z,97.82
2022-12-25T19:59:24.071Z,97.84
2022-12-25T20:01:50.662Z,97.78
2022-12-25T20:04:18.815Z,97.76
2022-12-25T20:06:45.557Z,97.64
2022-12-25T20:09:20.620Z,97.93
2022-12-25T20:11:51.076Z,97.81
2022-12-25T20:14:20.128Z,97.79
2022-12-25T20:16:47.240Z,97.77
2022-12-25T20:19:14.514Z,97.76
2022-12-25T20:21:41.395Z,97.75
2022-12-25T20:24:10.115Z,97.65
2022-12-25T20:26:36.797Z,97.72
2022-12-25T20:29:03.230Z,97.80
2022-12-25T20:31:31.657Z,97.59
2022-12-25T20:33:59.892Z,97.55
2022-12-25T20:36:29.677Z,97.69
2022-12-25T20:39:02.481Z,97.35
2022-12-25T20:41:29.887Z,97.62
2022-12-25T20:43:57.149Z,97.52
2022-12-25T20:46:24.410Z,97.67
2022-12-25T20:48:51.852Z,97.63
2022-12-25T20:51:20.015Z,97.74
2022-12-25T20:53:51.650Z,97.69
2022-12-25T20:56:20.236Z,97.54
2022-12-25T20:58:46.863Z,97.51
2022-12-25T21:01:15.177Z,97.35
2022-12-25T21:03:42.060Z,97.20
2022-12-25T21:06:09.049Z,97.38
2022-12-25T21:08:36.940Z,97.37
2022-12-25T21:11:06.418Z,97.37
2022-12-25T21:13:34.410Z,97.31
2022-12-25T21:16:01.385Z,97.35
2022-12-25T21:18:28.314Z,97.62
2022-12-25T21:20:58.871Z,97.48
2022-12-25T21:23:28.755Z,97.45
2022-12-25T21:25:55.212Z,97.49
2022-12-25T21:28:23.756Z,97.55
2022-12-25T21:30:50.208Z,97.46
2022-12-25T21:33:35.551Z,97.52
2022-12-25T21:36:06.174Z,97.64
2022-12-25T21:38:35.293Z,97.41
2022-12-25T21:41:02.710Z,97.38
2022-12-25T21:43:29.253Z,97.38
2022-12-25T21:45:55.640Z,97.32
2022-12-25T21:48:22.073Z,97.32
2022-12-25T21:51:07.115Z,97.50
2022-12-25T21:53:33.560Z,97.48
2022-12-25T21:56:02.229Z,97.43
2022-12-25T21:58:29.050Z,97.49
2022-12-25T22:00:55.695Z,97.53
2022-12-25T22:03:23.101Z,97.54
2022-12-25T22:06:08.133Z,97.68
2022-12-25T22:08:34.640Z,97.77
2022-12-25T22:11:04.317Z,97.57
2022-12-25T22:13:49.253Z,97.86
2022-12-25T22:16:34.800Z,97.69
2022-12-25T22:19:20.945Z,98.03
2022-12-25T22:21:47.286Z,97.88
2022-12-25T22:24:14.104Z,97.85
2022-12-25T22:26:44.820Z,97.79
2022-12-25T22:29:11.285Z,97.91
2022-12-25T22:31:46.751Z,97.87
2022-12-25T22:34:15.172Z,97.82
2022-12-25T22:36:41.605Z,98.09
2022-12-25T22:39:08.020Z,97.92
2022-12-25T22:41:34.985Z,98.25
2022-12-25T22:44:18.561Z,98.04
2022-12-25T22:46:48.404Z,98.46
2022-12-25T22:49:16.467Z,98.08
2022-12-25T22:51:43.836Z,98.13
2022-12-25T22:54:31.003Z,98.14
2022-12-25T22:56:58.020Z,98.19
2022-12-25T22:59:24.435Z,98.06
2022-12-25T23:01:59.972Z,98.19
2022-12-25T23:04:26.828Z,98.10
2022-12-25T23:06:53.171Z,98.01
2022-12-25T23:09:24.941Z,98.44
2022-12-25T23:11:51.350Z,98.17
2022-12-25T23:14:36.252Z,98.07
2022-12-25T23:17:05.635Z,98.01
2022-12-25T23:19:50.816Z,98.08
2022-12-25T23:22:36.340Z,98.29
2022-12-25T23:25:21.621Z,98.18
2022-12-25T23:27:48.218Z,98.27
2022-12-25T23:30:15.939Z,98.36
2022-12-25T23:32:42.942Z,98.21
2022-12-25T23:35:10.204Z,98.23
2022-12-25T23:37:36.657Z,98.30
2022-12-25T23:40:06.268Z,98.52
2022-12-25T23:42:35.758Z,98.42
2022-12-25T23:45:02.666Z,98.44
2022-12-25T23:47:29.097Z,98.44
2022-12-25T23:49:55.412Z,98.58
2022-12-25T23:52:28.323Z,98.53
2022-12-25T23:54:57.701Z,98.56
2022-12-25T23:57:24.222Z,98.63
2022-12-25T23:59:53.064Z,98.60
